createdAt,value
2018-04-06T00:00:56.625Z,67.21
2018-04-06T00:02:06.805Z,67.21
2018-04-06T00:03:17.080Z,67.12
2018-04-06T00:04:27.934Z,67.31
2018-04-06T00:05:37.881Z,67.21
2018-04-06T00:06:47.934Z,67.21
2018-04-06T00:07:58.072Z,67.12
2018-04-06T00:09:07.953Z,67.12
2018-04-06T00:10:18.065Z,67.4
2018-04-06T00:11:28.021Z,67.4
2018-04-06T00:12:37.666Z,67.4
2018-04-06T00:13:47.801Z,67.69
2018-04-06T00:14:57.936Z,67.69
2018-04-06T00:16:08.114Z,67.12
2018-04-06T00:17:18.038Z,67.31
2018-04-06T00:18:28.288Z,67.31
2018-04-06T00:19:38.420Z,67.4
2018-04-06T00:20:48.571Z,67.88
2018-04-06T00:21:58.798Z,67.31
2018-04-06T00:23:08.958Z,67.21
2018-04-06T00:24:19.134Z,67.5
2018-04-06T00:25:29.376Z,67.69
2018-04-06T00:26:39.533Z,67.97
2018-04-06T00:27:49.762Z,67.5
2018-04-06T00:28:59.945Z,67.69
2018-04-06T00:30:11.571Z,67.12
2018-04-06T00:31:21.713Z,67.69
2018-04-06T00:32:31.862Z,67.5
2018-04-06T00:33:41.768Z,67.5
2018-04-06T00:34:51.918Z,67.4
2018-04-06T00:36:02.077Z,67.59
2018-04-06T00:37:12.223Z,67.59
2018-04-06T00:38:22.478Z,67.79
2018-04-06T00:39:32.681Z,67.79
2018-04-06T00:40:42.817Z,67.69
2018-04-06T00:41:53.052Z,67.79
2018-04-06T00:43:03.422Z,67.97
2018-04-06T00:44:13.595Z,68.07
2018-04-06T00:45:23.724Z,68.35
2018-04-06T00:46:33.596Z,68.26
2018-04-06T00:47:43.808Z,68.07
2018-04-06T00:48:53.963Z,68.16
2018-04-06T00:50:04.143Z,68.07
2018-04-06T00:51:14.082Z,68.07
2018-04-06T00:52:24.245Z,68.73
2018-04-06T00:53:34.273Z,68.16
2018-04-06T00:54:44.434Z,68.16
2018-04-06T00:55:54.710Z,68.07
2018-04-06T00:57:04.985Z,67.97
2018-04-06T00:58:15.173Z,67.97
2018-04-06T00:59:25.040Z,68.13
2018-04-06T01:00:35.159Z,68.04
2018-04-06T01:01:45.350Z,68.04
2018-04-06T01:02:55.587Z,68.64
2018-04-06T01:04:05.859Z,68.41
2018-04-06T01:05:15.752Z,68.54
2018-04-06T01:06:25.911Z,68.64
2018-04-06T01:07:36.088Z,68.6
2018-04-06T01:08:46.269Z,68.51
2018-04-06T01:09:56.410Z,68.7
2018-04-06T01:11:06.613Z,68.89
2018-04-06T01:12:16.797Z,68.89
2018-04-06T01:13:27.051Z,68.98
2018-04-06T01:14:37.573Z,69.17
2018-04-06T01:15:51.243Z,69.17
2018-04-06T01:17:05.547Z,68.98
2018-04-06T01:18:20.537Z,68.89
2018-04-06T01:19:33.322Z,69.27
2018-04-06T01:20:45.147Z,69.17
2018-04-06T01:22:00.087Z,69.17
2018-04-06T01:23:12.089Z,69.17
2018-04-06T01:24:24.265Z,69.27
2018-04-06T01:25:36.722Z,68.6
2018-04-06T01:26:48.327Z,69.27
2018-04-06T01:28:00.714Z,69.08
2018-04-06T01:29:12.453Z,69.17
2018-04-06T01:30:23.118Z,68.98
2018-04-06T01:31:33.880Z,69.17
2018-04-06T01:32:45.894Z,69.27
2018-04-06T01:33:57.086Z,69.46
2018-04-06T01:35:08.162Z,69.27
2018-04-06T01:36:19.191Z,68.98
2018-04-06T01:37:29.705Z,69.08
2018-04-06T01:38:40.984Z,69.74
2018-04-06T01:39:52.173Z,69.55
2018-04-06T01:41:04.061Z,69.65
2018-04-06T01:42:14.842Z,69.46
2018-04-06T01:43:25.052Z,69.55
2018-04-06T01:44:35.462Z,69.65
2018-04-06T01:45:45.593Z,69.46
2018-04-06T01:46:56.013Z,69.27
2018-04-06T01:48:06.170Z,69.84
2018-04-06T01:49:16.307Z,69.74
2018-04-06T01:50:26.763Z,69.27
2018-04-06T01:51:36.902Z,69.46
2018-04-06T01:52:47.043Z,69.36
2018-04-06T01:53:57.512Z,69.27
2018-04-06T01:55:07.950Z,69.36
2018-04-06T01:56:18.092Z,69.46
2018-04-06T01:57:28.236Z,69.46
2018-04-06T01:58:38.588Z,69.74
2018-04-06T01:59:48.731Z,69.55
2018-04-06T02:01:00.430Z,69.65
2018-04-06T02:02:10.624Z,69.36
2018-04-06T02:03:20.757Z,69.84
2018-04-06T02:04:31.240Z,69.65
2018-04-06T02:05:42.238Z,69.46
2018-04-06T02:06:52.405Z,69.74
2018-04-06T02:08:02.551Z,69.65
2018-04-06T02:09:12.926Z,69.55
2018-04-06T02:10:23.116Z,69.55
2018-04-06T02:11:33.240Z,69.65
2018-04-06T02:12:43.423Z,69.65
2018-04-06T02:13:53.670Z,69.27
2018-04-06T02:15:03.995Z,70.12
2018-04-06T02:16:14.258Z,69.74
2018-04-06T02:17:24.516Z,69.74
2018-04-06T02:18:34.726Z,69.93
2018-04-06T02:19:45.095Z,70.4
2018-04-06T02:20:55.679Z,70.4
2018-04-06T02:22:05.808Z,70.21
2018-04-06T02:23:16.149Z,69.93
2018-04-06T02:24:26.300Z,69.74
2018-04-06T02:25:36.875Z,70.03
2018-04-06T02:26:47.129Z,69.55
2018-04-06T02:27:57.705Z,69.74
2018-04-06T02:29:08.082Z,69.93
2018-04-06T02:30:18.248Z,70.21
2018-04-06T02:31:28.049Z,70.31
2018-04-06T02:32:38.626Z,70.31
2018-04-06T02:33:48.824Z,70.4
2018-04-06T02:34:58.951Z,70.21
2018-04-06T02:36:09.099Z,70.59
2018-04-06T02:37:19.621Z,70.59
2018-04-06T02:38:29.832Z,70.69
2018-04-06T02:39:40.234Z,70.69
2018-04-06T02:40:50.404Z,70.69
2018-04-06T02:42:00.554Z,70.4
2018-04-06T02:43:10.712Z,70.5
2018-04-06T02:44:20.942Z,70.59
2018-04-06T02:45:31.145Z,70.69
2018-04-06T02:46:41.541Z,70.31
2018-04-06T02:47:51.684Z,70.69
2018-04-06T02:49:01.898Z,70.5
2018-04-06T02:50:12.064Z,70.69
2018-04-06T02:51:22.235Z,70.69
2018-04-06T02:52:32.444Z,71.17
2018-04-06T02:53:42.426Z,70.69
2018-04-06T02:54:52.560Z,70.88
2018-04-06T02:56:02.703Z,71.36
2018-04-06T02:57:12.917Z,70.98
2018-04-06T02:58:23.458Z,71.17
2018-04-06T02:59:33.906Z,71.41
2018-04-06T03:00:43.800Z,71.64
2018-04-06T03:01:54.171Z,71.45
2018-04-06T03:03:04.410Z,71.26
2018-04-06T03:04:14.675Z,71.45
2018-04-06T03:05:25.027Z,71.45
2018-04-06T03:06:35.445Z,71.45
2018-04-06T03:07:45.784Z,71.36
2018-04-06T03:08:55.690Z,71.55
2018-04-06T03:10:05.874Z,71.45
2018-04-06T03:11:16.234Z,71.64
2018-04-06T03:12:26.809Z,71.55
2018-04-06T03:13:37.021Z,71.55
2018-04-06T03:14:47.782Z,71.45
2018-04-06T03:15:58.002Z,71.36
2018-04-06T03:17:08.337Z,72.02
2018-04-06T03:18:18.456Z,71.8
2018-04-06T03:19:28.608Z,71.64
2018-04-06T03:20:39.342Z,71.6
2018-04-06T03:21:49.570Z,71.51
2018-04-06T03:22:59.700Z,72.11
2018-04-06T03:24:10.000Z,72.08
2018-04-06T03:25:20.331Z,71.92
2018-04-06T03:26:30.666Z,72.08
2018-04-06T03:27:41.044Z,72.17
2018-04-06T03:28:51.332Z,71.8
2018-04-06T03:30:01.775Z,71.92
2018-04-06T03:31:11.949Z,72.21
2018-04-06T03:32:22.096Z,72.27
2018-04-06T03:33:32.232Z,71.92
2018-04-06T03:34:42.395Z,71.98
2018-04-06T03:35:52.538Z,71.89
2018-04-06T03:37:02.678Z,72.36
2018-04-06T03:38:12.799Z,72.4
2018-04-06T03:39:22.974Z,72.45
2018-04-06T03:40:33.110Z,71.8
2018-04-06T03:41:42.999Z,72.11
2018-04-06T03:42:53.149Z,71.64
2018-04-06T03:44:03.021Z,71.8
2018-04-06T03:45:13.160Z,71.73
2018-04-06T03:46:22.658Z,71.83
2018-04-06T03:47:33.535Z,71.7
2018-04-06T03:48:43.345Z,71.89
2018-04-06T03:49:53.807Z,71.8
2018-04-06T03:51:04.037Z,71.89
2018-04-06T03:52:14.170Z,72.08
2018-04-06T03:53:24.086Z,72.08
2018-04-06T03:54:33.967Z,71.8
2018-04-06T03:55:43.526Z,72.17
2018-04-06T03:56:53.698Z,72.45
2018-04-06T03:58:03.612Z,72.55
2018-04-06T03:59:13.393Z,72.64
2018-04-06T04:00:23.489Z,72.64
2018-04-06T04:01:33.332Z,72.74
2018-04-06T04:02:43.262Z,72.74
2018-04-06T04:03:52.802Z,73.12
2018-04-06T04:05:02.952Z,72.93
2018-04-06T04:06:13.158Z,72.55
2018-04-06T04:07:22.791Z,72.93
2018-04-06T04:08:32.371Z,72.74
2018-04-06T04:09:42.506Z,72.84
2018-04-06T04:10:52.350Z,72.64
2018-04-06T04:12:02.312Z,72.74
2018-04-06T04:13:11.990Z,72.64
2018-04-06T04:14:22.172Z,72.64
2018-04-06T04:15:32.328Z,72.84
2018-04-06T04:16:42.322Z,72.74
2018-04-06T04:17:52.172Z,73.31
2018-04-06T04:19:01.780Z,73.22
2018-04-06T04:20:11.930Z,73.31
2018-04-06T04:21:22.064Z,72.74
2018-04-06T04:22:32.207Z,72.64
2018-04-06T04:23:42.338Z,73.03
2018-04-06T04:24:52.462Z,72.74
2018-04-06T04:26:02.609Z,73.03
2018-04-06T04:27:12.765Z,72.93
2018-04-06T04:28:22.924Z,72.74
2018-04-06T04:29:33.078Z,72.84
2018-04-06T04:30:43.357Z,73.03
2018-04-06T04:31:53.200Z,73.41
2018-04-06T04:33:03.339Z,73.31
2018-04-06T04:34:13.506Z,73.31
2018-04-06T04:35:23.698Z,73.22
2018-04-06T04:36:34.024Z,73.31
2018-04-06T04:37:44.274Z,73.22
2018-04-06T04:38:54.546Z,73.22
2018-04-06T04:40:04.734Z,73.31
2018-04-06T04:41:14.956Z,73.31
2018-04-06T04:42:25.195Z,73.5
2018-04-06T04:43:35.373Z,73.6
2018-04-06T04:44:45.552Z,73.41
2018-04-06T04:45:55.982Z,73.22
2018-04-06T04:47:06.120Z,73.31
2018-04-06T04:48:15.756Z,73.41
2018-04-06T04:49:25.920Z,73.22
2018-04-06T04:50:36.158Z,73.22
2018-04-06T04:51:46.404Z,73.41
2018-04-06T04:52:56.546Z,73.31
2018-04-06T04:54:06.096Z,73.31
2018-04-06T04:55:15.661Z,73.31
2018-04-06T04:56:25.812Z,73.31
2018-04-06T04:57:35.729Z,73.12
2018-04-06T04:58:45.927Z,73.41
2018-04-06T04:59:56.065Z,73.12
2018-04-06T05:01:05.959Z,72.64
2018-04-06T05:02:16.134Z,73.22
2018-04-06T05:03:26.054Z,73.03
2018-04-06T05:04:36.288Z,73.03
2018-04-06T05:05:46.408Z,72.84
2018-04-06T05:06:56.571Z,72.55
2018-04-06T05:08:06.728Z,73.12
2018-04-06T05:09:16.858Z,73.22
2018-04-06T05:10:27.038Z,73.03
2018-04-06T05:11:36.909Z,72.93
2018-04-06T05:12:47.085Z,73.22
2018-04-06T05:13:57.363Z,73.22
2018-04-06T05:15:07.246Z,73.22
2018-04-06T05:16:16.762Z,73.12
2018-04-06T05:17:27.035Z,73.41
2018-04-06T05:18:37.270Z,73.31
2018-04-06T05:19:47.174Z,73.12
2018-04-06T05:20:57.285Z,73.12
2018-04-06T05:22:07.396Z,73.5
2018-04-06T05:23:17.336Z,73.12
2018-04-06T05:24:27.395Z,73.22
2018-04-06T05:25:37.522Z,73.12
2018-04-06T05:26:47.684Z,73.12
2018-04-06T05:27:57.912Z,73.12
2018-04-06T05:29:07.648Z,73.31
2018-04-06T05:30:17.860Z,73.22
2018-04-06T05:31:27.725Z,73.22
2018-04-06T05:32:37.592Z,73.12
2018-04-06T05:33:47.758Z,73.22
2018-04-06T05:34:57.771Z,73.41
2018-04-06T05:36:07.972Z,73.41
2018-04-06T05:37:18.219Z,73.31
2018-04-06T05:38:28.660Z,73.12
2018-04-06T05:39:38.625Z,73.31
2018-04-06T05:40:48.778Z,73.12
2018-04-06T05:41:58.895Z,73.12
2018-04-06T05:43:09.055Z,72.74
2018-04-06T05:44:19.209Z,72.55
2018-04-06T05:45:29.381Z,72.84
2018-04-06T05:46:39.568Z,73.03
2018-04-06T05:47:49.808Z,73.03
2018-04-06T05:48:59.979Z,72.88
2018-04-06T05:50:10.139Z,72.78
2018-04-06T05:51:20.498Z,72.68
2018-04-06T05:52:30.786Z,72.4
2018-04-06T05:53:40.954Z,72.21
2018-04-06T05:54:51.185Z,72.4
2018-04-06T05:56:01.356Z,72.4
2018-04-06T05:57:11.533Z,72.4
2018-04-06T05:58:21.831Z,72.59
2018-04-06T05:59:32.063Z,71.83
2018-04-06T06:00:42.208Z,72.21
2018-04-06T06:01:52.450Z,72.02
2018-04-06T06:03:02.351Z,72.02
2018-04-06T06:04:12.265Z,71.83
2018-04-06T06:05:21.784Z,72.02
2018-04-06T06:06:31.960Z,71.58
2018-04-06T06:07:42.194Z,71.55
2018-04-06T06:08:51.798Z,71.2
2018-04-06T06:10:01.718Z,70.98
2018-04-06T06:11:11.602Z,71.17
2018-04-06T06:12:21.765Z,70.98
2018-04-06T06:13:31.929Z,71.26
2018-04-06T06:14:42.056Z,71.36
2018-04-06T06:15:52.210Z,71.36
2018-04-06T06:17:03.124Z,71.45
2018-04-06T06:18:13.279Z,71.45
2018-04-06T06:19:23.170Z,71.26
2018-04-06T06:20:33.293Z,71.73
2018-04-06T06:21:43.442Z,71.26
2018-04-06T06:22:53.669Z,71.45
2018-04-06T06:24:04.764Z,71.45
2018-04-06T06:25:14.682Z,71.73
2018-04-06T06:26:24.572Z,71.36
2018-04-06T06:27:34.325Z,71.45
2018-04-06T06:28:44.655Z,71.55
2018-04-06T06:29:54.491Z,71.73
2018-04-06T06:31:04.312Z,71.92
2018-04-06T06:32:14.194Z,71.36
2018-04-06T06:33:24.087Z,71.83
2018-04-06T06:34:34.261Z,71.45
2018-04-06T06:35:43.879Z,71.92
2018-04-06T06:36:54.253Z,71.26
2018-04-06T06:38:04.509Z,71.26
2018-04-06T06:39:14.709Z,71.26
2018-04-06T06:40:24.586Z,71.26
2018-04-06T06:41:34.570Z,71.45
2018-04-06T06:42:44.430Z,71.36
2018-04-06T06:43:54.258Z,71.77
2018-04-06T06:45:04.024Z,71.2
2018-04-06T06:46:14.177Z,71.3
2018-04-06T06:47:24.347Z,70.82
2018-04-06T06:48:34.530Z,71.11
2018-04-06T06:50:16.552Z,70.44
2018-04-06T06:51:25.917Z,70.44
2018-04-06T06:52:35.446Z,70.63
2018-04-06T06:53:45.334Z,70.54
2018-04-06T06:54:55.355Z,70.73
2018-04-06T06:56:05.651Z,70.73
2018-04-06T06:57:15.535Z,70.38
2018-04-06T06:58:25.409Z,70.54
2018-04-06T06:59:35.293Z,70.48
2018-04-06T07:00:45.246Z,70.48
2018-04-06T07:01:54.792Z,69.71
2018-04-06T07:03:04.715Z,70.29
2018-04-06T07:04:14.902Z,69.53
2018-04-06T07:05:24.515Z,69.62
2018-04-06T07:06:34.280Z,69.62
2018-04-06T07:07:44.302Z,69.53
2018-04-06T07:08:54.693Z,69.24
2018-04-06T07:10:04.392Z,69.15
2018-04-06T07:11:14.172Z,69.34
2018-04-06T07:12:24.319Z,68.77
2018-04-06T07:13:34.501Z,68.86
2018-04-06T07:14:44.711Z,68.58
2018-04-06T07:15:54.863Z,68.48
2018-04-06T07:17:04.732Z,68.48
2018-04-06T07:18:14.264Z,68.67
2018-04-06T07:19:24.163Z,68.67
2018-04-06T07:20:34.387Z,68.1
2018-04-06T07:21:44.617Z,68.39
2018-04-06T07:22:54.762Z,68.1
2018-04-06T07:24:04.321Z,68.29
2018-04-06T07:25:14.092Z,68.01
2018-04-06T07:26:24.252Z,68.23
2018-04-06T07:27:34.159Z,68.01
2018-04-06T07:28:44.016Z,68.33
2018-04-06T07:29:54.170Z,68.01
2018-04-06T07:31:04.447Z,67.94
2018-04-06T07:32:14.735Z,68.04
2018-04-06T07:33:24.636Z,67.94
2018-04-06T07:34:34.775Z,67.94
2018-04-06T07:35:44.580Z,67.76
2018-04-06T07:36:54.777Z,67.85
2018-04-06T07:38:04.570Z,67.66
2018-04-06T07:39:15.021Z,67.28
2018-04-06T07:40:24.545Z,67.28
2018-04-06T07:41:34.692Z,67.09
2018-04-06T07:42:44.827Z,67.47
2018-04-06T07:43:54.592Z,67.38
2018-04-06T07:45:04.733Z,67.38
2018-04-06T07:46:14.911Z,67.28
2018-04-06T07:47:25.150Z,66.94
2018-04-06T07:48:35.418Z,66.74
2018-04-06T07:49:45.092Z,66.94
2018-04-06T07:50:55.213Z,66.36
2018-04-06T07:52:05.360Z,66.55
2018-04-06T07:53:15.374Z,66.46
2018-04-06T07:54:25.502Z,66.02
2018-04-06T07:55:35.956Z,65.45
2018-04-06T07:56:45.891Z,65.45
2018-04-06T07:57:56.180Z,65.06
2018-04-06T07:59:05.854Z,64.72
2018-04-06T08:00:15.371Z,64.62
2018-04-06T08:01:25.540Z,64.18
2018-04-06T08:02:35.430Z,63.54
2018-04-06T08:03:45.632Z,62.81
2018-04-06T08:04:55.788Z,62.4
2018-04-06T08:06:05.623Z,61.29
2018-04-06T08:07:15.487Z,60.2
2018-04-06T08:08:25.368Z,58.12
2018-04-06T08:09:35.044Z,55.22
2018-04-06T08:10:44.926Z,54.57
2018-04-06T08:11:54.322Z,53.93
2018-04-06T08:13:04.629Z,53.19
2018-04-06T08:14:14.417Z,51.59
2018-04-06T08:15:24.578Z,50.82
2018-04-06T08:16:34.218Z,49.96
2018-04-06T08:17:44.402Z,48.54
2018-04-06T08:18:54.831Z,47.71
2018-04-06T08:20:05.028Z,47.13
2018-04-06T08:21:15.195Z,45.9
2018-04-06T08:22:25.358Z,45.71
2018-04-06T08:23:35.303Z,45.15
2018-04-06T08:24:45.435Z,43.71
2018-04-06T08:25:55.007Z,43.16
2018-04-06T08:27:04.935Z,42.58
2018-04-06T08:28:14.839Z,42.41
2018-04-06T08:29:25.033Z,41.26
2018-04-06T08:30:34.635Z,39.64
2018-04-06T08:31:44.812Z,39.45
2018-04-06T08:32:54.634Z,37.72
2018-04-06T08:34:04.513Z,37.43
2018-04-06T08:35:14.286Z,37.52
2018-04-06T08:36:24.192Z,36.95
2018-04-06T08:37:34.120Z,37.52
2018-04-06T08:38:44.264Z,37.54
2018-04-06T08:39:54.446Z,37.26
2018-04-06T08:41:04.613Z,36.68
2018-04-06T08:42:14.868Z,35.83
2018-04-06T08:43:25.095Z,35.35
2018-04-06T08:44:35.329Z,35.25
2018-04-06T08:45:45.559Z,34.58
2018-04-06T08:46:55.741Z,33.73
2018-04-06T08:48:06.056Z,33.44
2018-04-06T08:49:16.270Z,32.57
2018-04-06T08:50:26.402Z,32.28
2018-04-06T08:51:36.579Z,32.47
2018-04-06T08:52:46.821Z,32.95
2018-04-06T08:53:56.997Z,31.9
2018-04-06T08:55:07.296Z,32.09
2018-04-06T08:56:17.559Z,32.47
2018-04-06T08:57:27.449Z,31.99
2018-04-06T08:58:37.600Z,31.41
2018-04-06T08:59:47.836Z,31.43
2018-04-06T09:00:58.009Z,31.62
2018-04-06T09:02:07.937Z,30.19
2018-04-06T09:03:18.106Z,29.52
2018-04-06T09:04:29.726Z,29.42
2018-04-06T09:05:39.898Z,29.34
2018-04-06T09:06:50.071Z,29.34
2018-04-06T09:07:59.923Z,28.48
2018-04-06T09:09:10.118Z,27.42
2018-04-06T09:10:20.303Z,26.84
2018-04-06T09:12:48.133Z,27.33
2018-04-06T09:13:59.312Z,28.39
2018-04-06T09:15:10.697Z,27.42
2018-04-06T09:16:21.002Z,26.37
2018-04-06T09:17:31.267Z,26.86
2018-04-06T09:18:41.196Z,26.86
2018-04-06T09:19:51.378Z,26.87
2018-04-06T09:21:00.906Z,25.71
2018-04-06T09:22:11.194Z,26.1
2018-04-06T09:23:21.041Z,26.21
2018-04-06T09:24:30.691Z,26.21
2018-04-06T09:25:40.848Z,26.12
2018-04-06T09:26:51.069Z,25.15
2018-04-06T09:28:01.012Z,24.86
2018-04-06T09:29:10.983Z,24.67
2018-04-06T09:30:20.692Z,24.27
2018-04-06T09:31:30.690Z,24.24
2018-04-06T09:32:40.891Z,24.72
2018-04-06T09:33:50.948Z,24.92
2018-04-06T09:35:01.119Z,24.92
2018-04-06T09:36:11.041Z,25.29
2018-04-06T09:37:21.133Z,25.68
2018-04-06T09:38:31.436Z,25.48
2018-04-06T09:39:41.667Z,25.76
2018-04-06T09:40:51.581Z,25.59
2018-04-06T09:42:01.183Z,25.2
2018-04-06T09:43:11.342Z,25.29
2018-04-06T09:44:21.558Z,25.2
2018-04-06T09:45:31.778Z,25.39
2018-04-06T09:46:42.029Z,25.6
2018-04-06T09:47:52.236Z,25.4
2018-04-06T09:49:02.438Z,25.5
2018-04-06T09:50:12.373Z,25.21
2018-04-06T09:51:22.524Z,24.82
2018-04-06T09:52:32.684Z,24.82
2018-04-06T09:53:42.627Z,24.92
2018-04-06T09:54:52.931Z,24.24
2018-04-06T09:56:02.887Z,24.63
2018-04-06T09:57:12.527Z,24.35
2018-04-06T09:58:22.713Z,24.07
2018-04-06T09:59:32.895Z,23.69
2018-04-06T10:00:43.124Z,24.08
2018-04-06T10:01:53.335Z,23.87
2018-04-06T10:03:03.276Z,23.58
2018-04-06T10:04:13.329Z,23.49
2018-04-06T10:05:23.586Z,23.77
2018-04-06T10:06:33.792Z,23.96
2018-04-06T10:07:45.329Z,23.68
2018-04-06T10:08:55.312Z,24.16
2018-04-06T10:10:05.462Z,24.27
2018-04-06T10:11:15.708Z,24.08
2018-04-06T10:12:25.958Z,23.98
2018-04-06T10:13:36.125Z,24.27
2018-04-06T10:14:46.351Z,24.08
2018-04-06T10:15:56.550Z,23.98
2018-04-06T10:17:06.745Z,23.5
2018-04-06T10:19:31.271Z,23.3
2018-04-06T10:20:41.450Z,22.63
2018-04-06T10:21:51.695Z,23.19
2018-04-06T10:23:02.027Z,23.76
2018-04-06T10:24:12.198Z,23.66
2018-04-06T10:25:22.342Z,23.66
2018-04-06T10:26:32.509Z,23.75
2018-04-06T10:27:42.722Z,23.65
2018-04-06T10:28:52.903Z,23.65
2018-04-06T10:30:03.251Z,23.44
2018-04-06T10:31:13.462Z,23.82
2018-04-06T10:32:23.646Z,24.4
2018-04-06T10:33:33.860Z,24.5
2018-04-06T10:34:44.045Z,24.29
2018-04-06T10:35:54.252Z,24.29
2018-04-06T10:37:04.421Z,24.58
2018-04-06T10:38:14.332Z,24.77
2018-04-06T10:39:24.246Z,24.58
2018-04-06T10:40:33.977Z,24.29
2018-04-06T10:41:43.845Z,24.29
2018-04-06T10:42:53.757Z,24.68
2018-04-06T10:44:03.928Z,24.87
2018-04-06T10:45:13.865Z,25.26
2018-04-06T10:46:24.026Z,25.45
2018-04-06T10:47:34.207Z,24.98
2018-04-06T10:48:44.007Z,24.79
2018-04-06T10:49:54.421Z,24.22
2018-04-06T10:51:04.636Z,24.22
2018-04-06T10:52:14.320Z,24.22
2018-04-06T10:53:24.583Z,24.32
2018-04-06T10:54:34.883Z,24.13
2018-04-06T10:55:45.051Z,23.75
2018-04-06T10:56:55.287Z,23.65
2018-04-06T10:58:05.499Z,23.56
2018-04-06T10:59:15.756Z,23.55
2018-04-06T11:00:25.970Z,23.75
2018-04-06T11:01:35.932Z,23.55
2018-04-06T11:02:46.091Z,23.56
2018-04-06T11:03:56.285Z,23.75
2018-04-06T11:05:06.281Z,23.35
2018-04-06T11:06:16.540Z,22.58
2018-04-06T11:07:26.817Z,23.25
2018-04-06T11:08:37.031Z,22.87
2018-04-06T11:09:47.296Z,22.58
2018-04-06T11:10:57.494Z,23.08
2018-04-06T11:12:07.713Z,23.17
2018-04-06T11:13:17.927Z,23.17
2018-04-06T11:14:28.134Z,22.7
2018-04-06T11:15:39.004Z,22.22
2018-04-06T11:16:48.707Z,22.02
2018-04-06T11:17:58.900Z,21.35
2018-04-06T11:19:08.446Z,21.04
2018-04-06T11:20:18.175Z,20.48
2018-04-06T11:21:28.540Z,20.28
2018-04-06T11:22:38.738Z,19.61
2018-04-06T11:23:48.666Z,19.7
2018-04-06T11:24:58.636Z,19.8
2018-04-06T11:26:08.876Z,20.28
2018-04-06T11:27:19.048Z,20.57
2018-04-06T11:28:28.592Z,20.96
2018-04-06T11:29:38.770Z,21.15
2018-04-06T11:30:48.962Z,21.06
2018-04-06T11:31:58.888Z,21.06
2018-04-06T11:33:09.294Z,21.25
2018-04-06T11:34:19.485Z,20.96
2018-04-06T11:35:29.381Z,21.06
2018-04-06T11:36:38.954Z,21.44
2018-04-06T11:37:48.881Z,21.53
2018-04-06T11:38:59.077Z,21.62
2018-04-06T11:40:09.048Z,22.09
2018-04-06T11:41:19.032Z,22.45
2018-04-06T11:42:28.716Z,22.64
2018-04-06T11:43:38.695Z,23.22
2018-04-06T11:44:48.708Z,23.71
2018-04-06T11:45:58.689Z,23.52
2018-04-06T11:47:08.630Z,23.43
2018-04-06T11:48:18.868Z,23.52
2018-04-06T11:49:28.795Z,23.24
2018-04-06T11:50:38.714Z,23.04
2018-04-06T11:51:48.270Z,23.13
2018-04-06T11:52:58.501Z,23.13
2018-04-06T11:54:08.846Z,23.13
2018-04-06T11:55:19.120Z,23.13
2018-04-06T11:56:29.334Z,22.64
2018-04-06T11:57:39.520Z,22.26
2018-04-06T11:58:49.085Z,22.73
2018-04-06T11:59:58.999Z,22.93
2018-04-06T12:01:08.957Z,22.45
2018-04-06T12:02:19.137Z,23.13
2018-04-06T12:03:28.723Z,23.32
2018-04-06T12:04:38.984Z,22.66
2018-04-06T12:05:49.167Z,22.75
2018-04-06T12:06:59.093Z,22.85
2018-04-06T12:08:09.538Z,22.66
2018-04-06T12:09:20.502Z,22.66
2018-04-06T12:10:30.674Z,22.46
2018-04-06T12:11:40.844Z,22.38
2018-04-06T12:12:51.036Z,21.51
2018-04-06T12:14:01.242Z,22.09
2018-04-06T12:15:11.318Z,22.28
2018-04-06T12:16:21.536Z,22.39
2018-04-06T12:17:31.902Z,22.49
2018-04-06T12:18:42.118Z,22.67
2018-04-06T12:19:52.333Z,22.87
2018-04-06T12:21:02.542Z,22.77
2018-04-06T12:22:12.413Z,22.97
2018-04-06T12:23:22.583Z,22.57
2018-04-06T12:24:32.501Z,22.47
2018-04-06T12:25:42.725Z,23.24
2018-04-06T12:26:52.787Z,23.05
2018-04-06T12:28:02.962Z,23.05
2018-04-06T12:29:12.855Z,23.14
2018-04-06T12:30:22.339Z,23.22
2018-04-06T12:31:32.613Z,23.03
2018-04-06T12:32:42.840Z,23.32
2018-04-06T12:33:53.104Z,22.64
2018-04-06T12:35:03.276Z,22.46
2018-04-06T12:36:13.473Z,22.36
2018-04-06T12:37:23.652Z,21.97
2018-04-06T12:38:33.934Z,22.36
2018-04-06T12:39:43.844Z,22.45
2018-04-06T12:40:54.066Z,22.74
2018-04-06T12:42:04.251Z,22.64
2018-04-06T12:43:14.209Z,22.64
2018-04-06T12:44:24.149Z,22.93
2018-04-06T12:45:34.232Z,22.74
2018-04-06T12:46:44.486Z,22.44
2018-04-06T12:47:54.702Z,22.73
2018-04-06T12:49:04.904Z,23.1
2018-04-06T12:50:15.126Z,23.38
2018-04-06T12:51:25.332Z,23.67
2018-04-06T12:52:35.541Z,23.85
2018-04-06T12:53:45.789Z,24.23
2018-04-06T12:54:55.762Z,23.46
2018-04-06T12:56:05.739Z,23.85
2018-04-06T12:57:15.681Z,24.14
2018-04-06T12:58:25.830Z,23.94
2018-04-06T12:59:35.640Z,24.23
2018-04-06T13:00:45.559Z,23.94
2018-04-06T13:01:55.604Z,24.14
2018-04-06T13:03:05.966Z,24.22
2018-04-06T13:04:16.142Z,24.32
2018-04-06T13:05:26.316Z,24.5
2018-04-06T13:06:36.280Z,24.39
2018-04-06T13:07:45.955Z,24.68
2018-04-06T13:08:56.182Z,24.77
2018-04-06T13:10:07.135Z,24.68
2018-04-06T13:11:16.972Z,25.06
2018-04-06T13:12:26.644Z,25.43
2018-04-06T13:13:36.860Z,25.43
2018-04-06T13:14:47.104Z,25.43
2018-04-06T13:15:57.533Z,25.92
2018-04-06T13:17:07.764Z,26.1
2018-04-06T13:18:17.075Z,26.39
2018-04-06T13:19:26.652Z,26.49
2018-04-06T13:20:36.995Z,27.06
2018-04-06T13:21:47.197Z,27.36
2018-04-06T13:22:57.422Z,27.25
2018-04-06T13:24:07.031Z,27.63
2018-04-06T13:25:16.928Z,27.82
2018-04-06T13:26:26.868Z,27.82
2018-04-06T13:27:36.721Z,27.9
2018-04-06T13:28:48.104Z,27.9
2018-04-06T13:30:01.076Z,27.81
2018-04-06T13:31:13.806Z,28.19
2018-04-06T13:32:28.544Z,28.38
2018-04-06T13:33:54.888Z,28.56
2018-04-06T13:35:04.792Z,28.94
2018-04-06T13:36:27.746Z,28.85
2018-04-06T13:37:38.172Z,29.13
2018-04-06T13:39:01.368Z,29.13
2018-04-06T13:40:11.722Z,29.23
2018-04-06T13:41:21.952Z,29.33
2018-04-06T13:42:32.164Z,29.6
2018-04-06T13:43:42.378Z,29.71
2018-04-06T13:44:53.606Z,29.52
2018-04-06T13:46:36.200Z,29.42
2018-04-06T13:48:31.160Z,29.23
2018-04-06T13:49:55.187Z,29.71
2018-04-06T13:51:11.099Z,30
2018-04-06T13:52:25.013Z,29.61
2018-04-06T13:53:44.000Z,29.69
2018-04-06T13:54:55.704Z,29.88
2018-04-06T13:56:15.830Z,30.18
2018-04-06T13:57:43.589Z,29.98
2018-04-06T13:58:53.869Z,29.98
2018-04-06T14:00:04.317Z,30.08
2018-04-06T14:01:14.681Z,30.18
2018-04-06T14:02:26.581Z,29.79
2018-04-06T14:03:39.589Z,29.88
2018-04-06T14:06:29.169Z,29.5
2018-04-06T14:07:39.598Z,29.88
2018-04-06T14:08:49.805Z,29.88
2018-04-06T14:09:59.979Z,30.08
2018-04-06T14:11:10.272Z,29.97
2018-04-06T14:12:20.464Z,29.58
2018-04-06T14:13:30.731Z,29.49
2018-04-06T14:14:40.933Z,29.58
2018-04-06T14:15:51.117Z,29.68
2018-04-06T14:17:01.039Z,29.87
2018-04-06T14:18:11.221Z,29.97
2018-04-06T14:19:21.377Z,29.97
2018-04-06T14:20:31.542Z,29.88
2018-04-06T14:21:41.788Z,29.79
2018-04-06T14:22:52.030Z,29.6
2018-04-06T14:24:02.252Z,29.12
2018-04-06T14:25:12.440Z,28.92
2018-04-06T14:26:22.823Z,29.31
2018-04-06T14:27:33.045Z,29.22
2018-04-06T14:28:43.225Z,29.6
2018-04-06T14:29:53.415Z,29.6
2018-04-06T14:31:03.649Z,29.98
2018-04-06T14:32:13.817Z,30.08
2018-04-06T14:33:24.009Z,30.16
2018-04-06T14:34:34.176Z,30.46
2018-04-06T14:35:44.382Z,30.44
2018-04-06T14:36:54.593Z,30.26
2018-04-06T14:38:04.810Z,30.44
2018-04-06T14:39:15.075Z,29.68
2018-04-06T14:40:25.297Z,29.49
2018-04-06T14:41:35.496Z,29.49
2018-04-06T14:42:45.752Z,29.3
2018-04-06T14:43:55.689Z,29.3
2018-04-06T14:45:06.101Z,29.11
2018-04-06T14:46:16.361Z,28.91
2018-04-06T14:47:26.526Z,29.49
2018-04-06T14:48:36.703Z,29.49
2018-04-06T14:49:46.666Z,29.58
2018-04-06T14:50:56.904Z,29.77
2018-04-06T14:52:07.141Z,30.16
2018-04-06T14:53:17.384Z,30.26
2018-04-06T14:54:27.612Z,30.64
2018-04-06T14:55:37.770Z,30.54
2018-04-06T14:56:48.031Z,30.73
2018-04-06T14:57:57.956Z,30.73
2018-04-06T14:59:08.388Z,30.93
2018-04-06T15:00:18.499Z,30.93
2018-04-06T15:01:28.867Z,31.12
2018-04-06T15:02:38.824Z,31.12
2018-04-06T15:03:49.010Z,31.4
2018-04-06T15:04:59.228Z,31.59
2018-04-06T15:06:09.444Z,32.17
2018-04-06T15:07:19.483Z,31.88
2018-04-06T15:08:29.696Z,31.88
2018-04-06T15:09:39.886Z,32.75
2018-04-06T15:10:49.799Z,32.65
2018-04-06T15:12:00.007Z,32.07
2018-04-06T15:13:10.251Z,31.98
2018-04-06T15:14:26.829Z,31.4
2018-04-06T15:15:36.694Z,31.21